createdAt,value
2023-04-20T00:02:15.186Z,5.07
2023-04-20T00:04:44.161Z,4.53
2023-04-20T00:07:11.780Z,4.43
2023-04-20T00:09:39.342Z,4.35
2023-04-20T00:12:07.047Z,4.30
2023-04-20T00:14:34.395Z,4.50
2023-04-20T00:17:01.861Z,4.90
2023-04-20T00:19:33.006Z,4.43
2023-04-20T00:22:01.788Z,3.92
2023-04-20T00:24:29.210Z,4.03
2023-04-20T00:26:56.496Z,4.00
2023-04-20T00:29:23.840Z,4.22
2023-04-20T00:31:51.117Z,4.63
2023-04-20T00:34:18.452Z,4.00
2023-04-20T00:36:45.848Z,3.95
2023-04-20T00:39:14.524Z,4.60
2023-04-20T00:41:41.840Z,4.57
2023-04-20T00:44:11.220Z,4.55
2023-04-20T00:46:38.586Z,4.90
2023-04-20T00:49:06.620Z,4.85
2023-04-20T00:51:35.553Z,4.65
2023-04-20T00:54:02.828Z,4.28
2023-04-20T00:56:31.499Z,4.72
2023-04-20T00:58:58.874Z,4.78
2023-04-20T01:01:26.294Z,5.25
2023-04-20T01:03:54.558Z,4.50
2023-04-20T01:06:21.971Z,4.88
2023-04-20T01:08:50.507Z,5.32
2023-04-20T01:11:18.148Z,4.70
2023-04-20T01:13:46.905Z,5.07
2023-04-20T01:16:14.363Z,5.45
2023-04-20T01:18:46.287Z,4.72
2023-04-20T01:21:14.107Z,4.65
2023-04-20T01:23:43.039Z,4.88
2023-04-20T01:26:10.878Z,4.40
2023-04-20T01:28:38.195Z,4.93
2023-04-20T01:31:06.286Z,5.22
2023-04-20T01:33:33.679Z,4.40
2023-04-20T01:36:01.018Z,4.75
2023-04-20T01:38:28.405Z,4.95
2023-04-20T01:40:57.185Z,5.13
2023-04-20T01:43:24.506Z,5.35
2023-04-20T01:45:51.879Z,5.18
2023-04-20T01:48:19.199Z,5.05
2023-04-20T01:50:46.534Z,5.10
2023-04-20T01:53:14.316Z,5.28
2023-04-20T01:55:41.650Z,5.22
2023-04-20T01:58:10.405Z,4.88
2023-04-20T02:00:38.353Z,4.78
2023-04-20T02:03:05.799Z,4.50
2023-04-20T02:05:33.220Z,4.22
2023-04-20T02:08:00.601Z,4.40
2023-04-20T02:10:27.969Z,4.20
2023-04-20T02:12:55.285Z,4.55
2023-04-20T02:15:24.015Z,4.53
2023-04-20T02:17:52.341Z,4.75
2023-04-20T02:20:20.550Z,4.20
2023-04-20T02:22:47.951Z,4.32
2023-04-20T02:25:15.401Z,4.68
2023-04-20T02:27:42.819Z,4.72
2023-04-20T02:30:10.615Z,5.05
2023-04-20T02:32:39.776Z,4.97
2023-04-20T02:35:07.792Z,4.90
2023-04-20T02:37:35.123Z,4.43
2023-04-20T02:40:02.492Z,4.72
2023-04-20T02:42:29.822Z,4.72
2023-04-20T02:44:57.147Z,4.60
2023-04-20T02:47:24.500Z,4.95
2023-04-20T02:49:53.469Z,4.68
2023-04-20T02:52:20.738Z,4.90
2023-04-20T02:54:48.182Z,4.20
2023-04-20T02:57:15.630Z,4.32
2023-04-20T02:59:43.104Z,4.68
2023-04-20T03:02:10.518Z,4.97
2023-04-20T03:04:38.034Z,4.32
2023-04-20T03:07:06.704Z,4.57
2023-04-20T03:09:34.123Z,4.82
2023-04-20T03:12:02.476Z,4.47
2023-04-20T03:14:29.810Z,4.00
2023-04-20T03:16:57.173Z,4.68
2023-04-20T03:19:24.810Z,3.97
2023-04-20T03:21:52.100Z,4.28
2023-04-20T03:24:20.745Z,4.10
2023-04-20T03:26:48.050Z,3.80
2023-04-20T03:29:15.800Z,4.28
2023-04-20T03:31:43.309Z,4.05
2023-04-20T03:34:10.694Z,4.05
2023-04-20T03:36:38.262Z,4.05
2023-04-20T03:39:05.610Z,3.42
2023-04-20T03:41:34.263Z,4.25
2023-04-20T03:44:01.733Z,3.85
2023-04-20T03:46:29.175Z,4.50
2023-04-20T03:48:56.567Z,3.72
2023-04-20T03:51:23.879Z,3.65
2023-04-20T03:53:51.514Z,3.75
2023-04-20T03:56:18.851Z,3.83
2023-04-20T03:58:47.526Z,4.15
2023-04-20T04:01:15.683Z,4.82
2023-04-20T04:03:43.312Z,3.60
2023-04-20T04:06:11.143Z,3.97
2023-04-20T04:08:38.495Z,4.25
2023-04-20T04:11:05.999Z,4.03
2023-04-20T04:13:34.605Z,3.90
2023-04-20T04:16:03.585Z,4.30
2023-04-20T04:18:32.465Z,4.25
2023-04-20T04:21:00.144Z,4.15
2023-04-20T04:23:27.428Z,4.50
2023-04-20T04:25:57.341Z,4.20
2023-04-20T04:28:24.609Z,4.38
2023-04-20T04:30:52.314Z,4.25
2023-04-20T04:33:21.826Z,4.50
2023-04-20T04:35:49.429Z,4.45
2023-04-20T04:38:17.122Z,4.07
2023-04-20T04:40:45.708Z,4.22
2023-04-20T04:43:13.081Z,4.18
2023-04-20T04:45:40.879Z,4.60
2023-04-20T04:48:09.492Z,5.00
2023-04-20T04:50:38.240Z,4.78
2023-04-20T04:53:05.632Z,5.28
2023-04-20T04:55:32.953Z,5.05
2023-04-20T04:58:01.580Z,5.03
2023-04-20T05:00:29.146Z,4.90
2023-04-20T05:02:56.804Z,5.20
2023-04-20T05:05:25.280Z,4.82
2023-04-20T05:07:53.942Z,5.45
2023-04-20T05:10:21.455Z,5.80
2023-04-20T05:12:49.565Z,6.07
2023-04-20T05:15:17.805Z,5.47
2023-04-20T05:17:45.208Z,6.88
2023-04-20T05:20:13.918Z,7.22
2023-04-20T05:22:41.279Z,6.80
2023-04-20T05:25:12.607Z,6.95
2023-04-20T05:27:41.184Z,7.00
2023-04-20T05:30:19.447Z,7.68
2023-04-20T05:32:51.457Z,8.40
2023-04-20T05:35:19.450Z,8.27
2023-04-20T05:37:47.365Z,8.25
2023-04-20T05:40:16.451Z,8.57
2023-04-20T05:42:43.791Z,8.77
2023-04-20T05:45:12.045Z,8.68
2023-04-20T05:47:39.378Z,9.57
2023-04-20T05:50:07.517Z,9.25
2023-04-20T05:52:34.878Z,8.85
2023-04-20T05:55:02.190Z,9.40
2023-04-20T05:57:30.828Z,8.60
2023-04-20T05:59:58.139Z,8.43
2023-04-20T06:02:25.918Z,9.55
2023-04-20T06:04:53.598Z,10.07
2023-04-20T06:07:21.037Z,9.60
2023-04-20T06:09:48.336Z,9.73
2023-04-20T06:12:15.629Z,11.52
2023-04-20T06:14:44.275Z,11.52
2023-04-20T06:17:11.588Z,11.07
2023-04-20T06:19:38.852Z,10.90
2023-04-20T06:22:07.133Z,11.75
2023-04-20T06:24:34.887Z,12.38
2023-04-20T06:27:02.471Z,11.48
2023-04-20T06:29:30.007Z,11.27
2023-04-20T06:31:58.737Z,11.07
2023-04-20T06:34:26.086Z,11.38
2023-04-20T06:36:53.491Z,11.10
2023-04-20T06:39:20.824Z,11.25
2023-04-20T06:41:48.135Z,12.27
2023-04-20T06:44:15.397Z,12.10
2023-04-20T06:46:42.763Z,12.52
2023-04-20T06:49:11.406Z,12.20
2023-04-20T06:51:39.980Z,12.20
2023-04-20T06:54:07.362Z,12.85
2023-04-20T06:56:35.682Z,13.60
2023-04-20T06:59:03.249Z,12.68
2023-04-20T07:01:30.701Z,14.88
2023-04-20T07:03:58.187Z,15.48
2023-04-20T07:06:28.110Z,14.65
2023-04-20T07:08:55.369Z,14.52
2023-04-20T07:11:22.743Z,15.57
2023-04-20T07:13:50.191Z,16.42
2023-04-20T07:16:17.565Z,15.65
2023-04-20T07:18:44.936Z,17.45
2023-04-20T07:21:12.304Z,18.00
2023-04-20T07:23:42.286Z,17.33
2023-04-20T07:26:11.608Z,18.45
2023-04-20T07:28:38.913Z,19.67
2023-04-20T07:31:06.271Z,17.90
2023-04-20T07:33:35.570Z,17.67
2023-04-20T07:36:02.914Z,17.05
2023-04-20T07:38:30.209Z,17.23
2023-04-20T07:40:58.902Z,18.25
2023-04-20T07:43:26.170Z,18.95
2023-04-20T07:45:53.452Z,18.08
2023-04-20T07:48:20.796Z,17.80
2023-04-20T07:50:48.135Z,17.02
2023-04-20T07:53:15.461Z,17.13
2023-04-20T07:55:42.762Z,16.77
2023-04-20T07:58:11.914Z,19.10
2023-04-20T08:00:39.210Z,19.50
2023-04-20T08:03:06.727Z,20.20
2023-04-20T08:05:34.294Z,19.85
2023-04-20T08:08:01.703Z,18.63
2023-04-20T08:10:28.973Z,18.20
2023-04-20T08:12:56.223Z,17.98
2023-04-20T08:15:24.902Z,17.10
2023-04-20T08:17:52.861Z,16.92
2023-04-20T08:20:20.198Z,15.93
2023-04-20T08:22:47.566Z,14.95
2023-04-20T08:25:15.072Z,15.07
2023-04-20T08:27:42.471Z,13.30
2023-04-20T08:30:10.061Z,12.70
2023-04-20T08:32:40.047Z,13.82
2023-04-20T08:35:08.492Z,11.68
2023-04-20T08:37:37.294Z,11.88
2023-04-20T08:40:05.567Z,9.95
2023-04-20T08:42:32.994Z,10.88
2023-04-20T08:45:00.737Z,10.38
2023-04-20T08:47:28.789Z,9.50
2023-04-20T08:49:57.599Z,9.27
2023-04-20T08:52:24.943Z,9.35
2023-04-20T08:54:56.786Z,8.82
2023-04-20T08:57:25.721Z,9.27
2023-04-20T08:59:53.056Z,10.38
2023-04-20T09:02:20.560Z,9.40
2023-04-20T09:04:49.152Z,8.32
2023-04-20T09:07:21.844Z,8.32
2023-04-20T09:09:55.814Z,8.18
2023-04-20T09:12:24.485Z,6.35
2023-04-20T09:14:52.324Z,5.95
2023-04-20T09:17:32.450Z,6.07
2023-04-20T09:19:59.858Z,6.55
2023-04-20T09:22:32.145Z,6.65
2023-04-20T09:24:59.536Z,6.07
2023-04-20T09:27:27.116Z,7.18
2023-04-20T09:29:58.277Z,6.55
2023-04-20T09:32:26.255Z,6.25
2023-04-20T09:34:53.601Z,6.25
2023-04-20T09:37:22.603Z,6.75
2023-04-20T09:39:51.375Z,7.05
2023-04-20T09:42:18.919Z,6.15
2023-04-20T09:44:46.242Z,6.70
2023-04-20T09:47:17.193Z,6.70
2023-04-20T09:49:45.513Z,6.60
2023-04-20T09:52:14.090Z,7.30
2023-04-20T09:54:41.450Z,7.18
2023-04-20T09:57:10.501Z,7.93
2023-04-20T09:59:38.089Z,7.13
2023-04-20T10:02:09.081Z,6.47
2023-04-20T10:04:36.636Z,6.25
2023-04-20T10:07:06.174Z,6.28
2023-04-20T10:09:34.332Z,7.13
2023-04-20T10:12:08.859Z,4.68
2023-04-20T10:14:37.528Z,2.75
2023-04-20T10:17:05.892Z,2.15
2023-04-20T10:19:40.530Z,1.92
2023-04-20T10:22:08.316Z,2.30
2023-04-20T10:24:36.015Z,2.13
2023-04-20T10:27:04.126Z,1.58
2023-04-20T10:29:32.755Z,1.60
2023-04-20T10:32:02.180Z,1.70
2023-04-20T10:34:32.881Z,1.60
2023-04-20T10:37:09.966Z,1.70
2023-04-20T10:39:38.431Z,1.42
2023-04-20T10:42:05.912Z,1.52
2023-04-20T10:44:35.235Z,1.50
2023-04-20T10:47:03.902Z,1.60
2023-04-20T10:49:32.442Z,1.50
2023-04-20T10:51:59.886Z,1.65
2023-04-20T10:54:28.814Z,1.70
2023-04-20T10:56:56.979Z,1.38
2023-04-20T10:59:24.936Z,1.60
2023-04-20T11:01:54.015Z,1.40
2023-04-20T11:04:30.174Z,1.40
2023-04-20T11:07:04.987Z,1.35
2023-04-20T11:12:01.856Z,1.40
2023-04-20T11:14:29.474Z,1.70
2023-04-20T11:16:56.954Z,1.67
2023-04-20T11:19:26.654Z,1.60
2023-04-20T11:21:54.147Z,1.83
2023-04-20T11:24:23.200Z,1.75
2023-04-20T11:26:51.013Z,1.80
2023-04-20T11:29:28.993Z,1.65
2023-04-20T11:31:56.451Z,1.50
2023-04-20T11:34:24.107Z,1.70
2023-04-20T11:36:52.947Z,1.60
2023-04-20T11:39:23.800Z,1.63
2023-04-20T11:41:51.524Z,1.77
2023-04-20T11:44:20.749Z,1.58
2023-04-20T11:46:48.779Z,1.88
2023-04-20T11:49:16.912Z,1.90
2023-04-20T11:51:44.500Z,2.00
2023-04-20T11:54:13.178Z,2.50
2023-04-20T11:56:42.449Z,2.47
2023-04-20T11:59:09.985Z,2.42
2023-04-20T12:01:37.668Z,2.67
2023-04-20T12:04:06.023Z,2.75
2023-04-20T12:06:34.003Z,2.50
2023-04-20T12:09:01.863Z,2.60
2023-04-20T12:11:30.605Z,2.50
2023-04-20T12:13:58.375Z,2.03
2023-04-20T12:16:25.850Z,2.05
2023-04-20T12:18:53.145Z,2.40
2023-04-20T12:21:20.698Z,2.72
2023-04-20T12:23:49.490Z,2.50
2023-04-20T12:26:16.781Z,2.72
2023-04-20T12:28:46.016Z,3.00
2023-04-20T12:31:13.359Z,3.28
2023-04-20T12:33:40.709Z,3.42
2023-04-20T12:36:08.235Z,3.95
2023-04-20T12:38:36.046Z,3.88
2023-04-20T12:41:04.090Z,4.28
2023-04-20T12:43:31.691Z,4.25
2023-04-20T12:46:00.305Z,4.15
2023-04-20T12:48:27.632Z,4.32
2023-04-20T12:50:54.933Z,3.63
2023-04-20T12:53:22.265Z,3.08
2023-04-20T12:55:54.984Z,3.45
2023-04-20T12:58:27.959Z,3.60
2023-04-20T13:00:55.362Z,3.17
2023-04-20T13:03:24.237Z,3.53
2023-04-20T13:05:51.644Z,3.45
2023-04-20T13:08:19.674Z,3.60
2023-04-20T13:10:46.984Z,3.63
2023-04-20T13:13:14.338Z,3.85
2023-04-20T13:15:41.748Z,3.58
2023-04-20T13:18:09.787Z,3.83
2023-04-20T13:20:38.581Z,3.72
2023-04-20T13:23:05.996Z,4.38
2023-04-20T13:25:33.764Z,4.10
2023-04-20T13:28:01.879Z,4.55
2023-04-20T13:30:29.180Z,5.07
2023-04-20T13:32:56.607Z,4.75
2023-04-20T13:35:24.296Z,4.25
2023-04-20T13:37:52.993Z,4.93
2023-04-20T13:40:20.316Z,4.25
2023-04-20T13:42:47.740Z,4.85
2023-04-20T13:45:15.124Z,4.47
2023-04-20T13:47:42.473Z,4.28
2023-04-20T13:50:10.281Z,4.82
2023-04-20T13:52:37.646Z,4.80
2023-04-20T13:55:06.694Z,4.85
2023-04-20T13:57:34.082Z,5.15
2023-04-20T14:00:02.130Z,4.78
2023-04-20T14:02:30.013Z,4.30
2023-04-20T14:04:57.573Z,4.25
2023-04-20T14:07:24.966Z,5.28
2023-04-20T14:09:53.708Z,4.28
2023-04-20T14:12:22.463Z,4.63
2023-04-20T14:14:49.768Z,4.80
2023-04-20T14:17:17.085Z,4.20
2023-04-20T14:19:44.477Z,5.20
2023-04-20T14:22:11.837Z,4.00
2023-04-20T14:24:39.133Z,3.97
2023-04-20T14:27:06.419Z,4.57
2023-04-20T14:29:35.169Z,4.50
2023-04-20T14:32:02.473Z,3.85
2023-04-20T14:34:29.861Z,3.65
2023-04-20T14:36:57.172Z,5.07
2023-04-20T14:39:24.477Z,3.92
2023-04-20T14:41:51.855Z,4.47
2023-04-20T14:44:19.298Z,4.68
2023-04-20T14:46:48.325Z,4.70
2023-04-20T14:49:15.769Z,4.72
2023-04-20T14:51:43.099Z,4.80
2023-04-20T14:54:10.864Z,4.30
2023-04-20T14:56:38.162Z,4.13
2023-04-20T14:59:05.502Z,4.38
2023-04-20T15:01:32.891Z,3.83
2023-04-20T15:04:01.772Z,3.97
2023-04-20T15:06:29.330Z,4.05
2023-04-20T15:08:57.167Z,4.25
2023-04-20T15:11:24.457Z,4.18
2023-04-20T15:13:54.042Z,4.43
2023-04-20T15:16:21.432Z,4.72
2023-04-20T15:18:51.642Z,4.60
2023-04-20T15:21:20.743Z,5.20
2023-04-20T15:23:48.045Z,4.85
2023-04-20T15:26:15.378Z,4.63
2023-04-20T15:28:42.669Z,4.25
2023-04-20T15:31:09.986Z,5.07
2023-04-20T15:33:37.302Z,4.65
2023-04-20T15:36:04.749Z,4.70
2023-04-20T15:38:33.588Z,5.25
2023-04-20T15:41:00.951Z,4.63
2023-04-20T15:43:28.337Z,5.10
2023-04-20T15:45:55.705Z,4.80
2023-04-20T15:48:23.047Z,4.35
2023-04-20T15:50:51.675Z,4.85
2023-04-20T15:53:19.488Z,5.30
2023-04-20T15:55:48.164Z,4.65
2023-04-20T15:58:15.885Z,5.13
2023-04-20T16:00:43.236Z,4.68
2023-04-20T16:03:11.053Z,4.72
2023-04-20T16:05:38.656Z,5.13
2023-04-20T16:08:06.374Z,4.90
2023-04-20T16:10:34.027Z,5.03
2023-04-20T16:13:03.431Z,4.80
2023-04-20T16:15:31.294Z,4.90
2023-04-20T16:17:59.894Z,4.65
2023-04-20T16:20:27.254Z,4.72
2023-04-20T16:22:54.566Z,4.65
2023-04-20T16:25:23.970Z,4.03
2023-04-20T16:27:51.519Z,4.47
2023-04-20T16:30:20.349Z,4.78
2023-04-20T16:32:47.745Z,4.05
2023-04-20T16:35:15.182Z,4.55
2023-04-20T16:37:42.475Z,4.30
2023-04-20T16:40:10.234Z,4.10
2023-04-20T16:42:37.736Z,3.90
2023-04-20T16:45:05.496Z,3.88
2023-04-20T16:47:34.166Z,3.40
2023-04-20T16:50:01.526Z,4.30
2023-04-20T16:52:28.877Z,3.65
2023-04-20T16:54:56.210Z,3.85
2023-04-20T16:57:23.543Z,3.90
2023-04-20T16:59:51.003Z,3.85
2023-04-20T17:02:18.606Z,4.07
2023-04-20T17:04:47.371Z,3.83
2023-04-20T17:07:14.726Z,4.07
2023-04-20T17:09:42.037Z,3.90
2023-04-20T17:12:09.378Z,3.80
2023-04-20T17:14:37.085Z,4.60
2023-04-20T17:17:04.437Z,4.28
2023-04-20T17:19:31.745Z,4.35
2023-04-20T17:22:03.299Z,4.20
2023-04-20T17:24:30.747Z,3.90
2023-04-20T17:26:58.105Z,4.07
2023-04-20T17:29:25.543Z,4.70
2023-04-20T17:31:52.926Z,4.20
2023-04-20T17:34:20.883Z,4.05
2023-04-20T17:36:48.299Z,4.53
2023-04-20T17:39:16.980Z,4.63
2023-04-20T17:41:44.652Z,4.50
2023-04-20T17:44:12.256Z,5.35
2023-04-20T17:46:39.964Z,5.60
2023-04-20T17:49:07.376Z,4.97
2023-04-20T17:51:34.684Z,5.68
2023-04-20T17:54:02.090Z,5.75
2023-04-20T17:56:30.975Z,5.72
2023-04-20T17:58:58.306Z,5.10
2023-04-20T18:01:25.628Z,4.93
2023-04-20T18:03:53.274Z,6.00
2023-04-20T18:06:20.709Z,5.60
2023-04-20T18:08:48.027Z,6.55
2023-04-20T18:11:15.370Z,5.93
2023-04-20T18:13:44.542Z,6.22
2023-04-20T18:16:12.057Z,6.45
2023-04-20T18:18:39.441Z,6.50
2023-04-20T18:21:06.746Z,6.53
2023-04-20T18:23:34.043Z,6.78
2023-04-20T18:26:01.591Z,7.18
2023-04-20T18:28:28.883Z,6.60
2023-04-20T18:30:59.019Z,6.97
2023-04-20T18:33:26.494Z,6.53
2023-04-20T18:35:53.838Z,7.53
2023-04-20T18:38:21.164Z,7.07
2023-04-20T18:40:48.468Z,6.97
2023-04-20T18:43:15.819Z,7.38
2023-04-20T18:45:43.216Z,8.35
2023-04-20T18:48:11.935Z,8.80
2023-04-20T18:50:39.217Z,7.70
2023-04-20T18:53:06.541Z,8.15
2023-04-20T18:55:33.903Z,7.72
2023-04-20T18:58:01.288Z,9.10
2023-04-20T19:00:31.465Z,8.65
2023-04-20T19:02:58.961Z,8.60
2023-04-20T19:05:27.737Z,8.35
2023-04-20T19:07:55.224Z,8.40
2023-04-20T19:10:22.523Z,8.55
2023-04-20T19:12:49.862Z,8.73
2023-04-20T19:15:17.292Z,8.38
2023-04-20T19:17:44.673Z,8.75
2023-04-20T19:20:12.577Z,8.48
2023-04-20T19:22:41.212Z,8.80
2023-04-20T19:25:08.977Z,9.32
2023-04-20T19:27:36.345Z,9.65
2023-04-20T19:30:03.783Z,8.88
2023-04-20T19:32:31.235Z,9.52
2023-04-20T19:34:59.630Z,9.13
2023-04-20T19:37:27.038Z,10.25
2023-04-20T19:39:55.674Z,10.00
2023-04-20T19:42:23.097Z,10.38
2023-04-20T19:44:50.637Z,10.30
2023-04-20T19:47:18.841Z,10.98
2023-04-20T19:49:46.242Z,11.35
2023-04-20T19:52:13.552Z,11.27
2023-04-20T19:54:41.257Z,10.43
2023-04-20T19:57:10.008Z,11.40
2023-04-20T19:59:38.920Z,11.73
2023-04-20T20:02:06.467Z,11.25
2023-04-20T20:04:37.426Z,11.13
2023-04-20T20:07:05.109Z,11.48
2023-04-20T20:09:32.495Z,11.93
2023-04-20T20:12:01.106Z,11.68
2023-04-20T20:14:31.004Z,12.85
2023-04-20T20:16:58.419Z,12.75
2023-04-20T20:19:25.816Z,12.55
2023-04-20T20:21:53.107Z,12.70
2023-04-20T20:24:22.949Z,12.35
2023-04-20T20:26:50.300Z,12.55
2023-04-20T20:29:18.018Z,13.30
2023-04-20T20:31:47.029Z,12.95
2023-04-20T20:34:14.370Z,12.90
2023-04-20T20:36:44.552Z,13.77
2023-04-20T20:39:12.577Z,13.43
2023-04-20T20:41:42.357Z,13.05
2023-04-20T20:44:10.413Z,15.50
2023-04-20T20:46:37.853Z,15.40
2023-04-20T20:49:06.692Z,15.85
2023-04-20T20:51:34.009Z,16.63
2023-04-20T20:54:01.284Z,18.52
2023-04-20T20:56:28.660Z,19.70
2023-04-20T20:58:55.988Z,20.42
2023-04-20T21:01:23.311Z,21.83
2023-04-20T21:03:50.985Z,22.85
2023-04-20T21:06:19.664Z,21.75
2023-04-20T21:08:47.182Z,22.83
2023-04-20T21:11:14.493Z,24.58
2023-04-20T21:13:41.793Z,25.20
2023-04-20T21:16:09.129Z,26.27
2023-04-20T21:18:36.461Z,25.27
2023-04-20T21:21:03.814Z,25.23
2023-04-20T21:23:32.462Z,26.27
2023-04-20T21:25:59.739Z,27.30
2023-04-20T21:28:27.046Z,27.05
2023-04-20T21:30:54.311Z,28.27
2023-04-20T21:33:21.625Z,29.83
2023-04-20T21:35:49.015Z,29.08
2023-04-20T21:38:16.322Z,30.50
2023-04-20T21:40:44.927Z,29.38
2023-04-20T21:43:12.245Z,30.60
2023-04-20T21:45:39.576Z,30.70
2023-04-20T21:48:07.094Z,31.67
2023-04-20T21:50:34.412Z,32.63
2023-04-20T21:53:01.732Z,32.72
2023-04-20T21:55:29.148Z,33.42
2023-04-20T21:57:57.772Z,34.75
2023-04-20T22:00:25.081Z,33.92
2023-04-20T22:02:52.574Z,32.38
2023-04-20T22:05:20.125Z,34.15
2023-04-20T22:07:47.381Z,35.60
2023-04-20T22:10:14.994Z,35.15
2023-04-20T22:12:42.546Z,35.88
2023-04-20T22:15:12.534Z,32.88
2023-04-20T22:17:40.431Z,35.47
2023-04-20T22:20:09.075Z,35.97
2023-04-20T22:22:36.501Z,33.83
2023-04-20T22:25:04.631Z,32.55
2023-04-20T22:27:32.200Z,35.70
2023-04-20T22:29:59.734Z,36.00
2023-04-20T22:32:28.585Z,36.33
2023-04-20T22:34:55.862Z,34.30
2023-04-20T22:37:23.150Z,37.42
2023-04-20T22:39:50.390Z,35.28
2023-04-20T22:42:17.660Z,37.50
2023-04-20T22:44:45.517Z,38.30
2023-04-20T22:47:12.844Z,39.08
2023-04-20T22:49:41.708Z,39.33
2023-04-20T22:52:09.186Z,39.83
2023-04-20T22:54:37.414Z,40.05
2023-04-20T22:57:04.738Z,40.08
2023-04-20T22:59:32.133Z,39.10
2023-04-20T23:01:59.468Z,38.72
2023-04-20T23:04:26.795Z,39.65
2023-04-20T23:06:57.533Z,37.08
2023-04-20T23:09:24.843Z,40.30
2023-04-20T23:11:53.647Z,39.38
2023-04-20T23:14:22.307Z,40.20
2023-04-20T23:16:49.662Z,45.20
2023-04-20T23:19:18.338Z,42.75
2023-04-20T23:21:45.801Z,41.60
2023-04-20T23:24:14.382Z,41.88
2023-04-20T23:26:41.673Z,42.97
2023-04-20T23:29:08.977Z,44.80
2023-04-20T23:31:36.310Z,42.92
2023-04-20T23:34:03.676Z,42.13
2023-04-20T23:36:31.038Z,42.22
2023-04-20T23:38:58.551Z,42.28
2023-04-20T23:41:27.190Z,41.47
2023-04-20T23:43:54.559Z,42.38
2023-04-20T23:46:21.891Z,43.10
2023-04-20T23:48:51.218Z,42.72
2023-04-20T23:51:18.566Z,40.00
2023-04-20T23:53:46.007Z,41.35
2023-04-20T23:56:13.332Z,41.33
2023-04-20T23:58:41.935Z,38.63
